sensor_id;sensor_type;location;lat;lon;timestamp;pressure;altitude;pressure_sealevel;temperature;humidity
34073;BME280;20346;52.702;16.886;2024-01-25T00:02:15;100301.73;;;6.16;89.15
34073;BME280;20346;52.702;16.886;2024-01-25T00:05:01;100306.86;;;6.18;89.20
34073;BME280;20346;52.702;16.886;2024-01-25T00:07:47;100316.10;;;6.20;89.02
34073;BME280;20346;52.702;16.886;2024-01-25T00:10:33;100316.27;;;6.21;97.27
34073;BME280;20346;52.702;16.886;2024-01-25T00:13:19;100314.05;;;6.17;91.15
34073;BME280;20346;52.702;16.886;2024-01-25T00:16:05;100309.09;;;6.14;90.24
34073;BME280;20346;52.702;16.886;2024-01-25T00:18:51;100310.98;;;6.10;89.69
34073;BME280;20346;52.702;16.886;2024-01-25T00:21:43;100307.57;;;6.08;89.50
34073;BME280;20346;52.702;16.886;2024-01-25T00:24:29;100312.20;;;6.08;88.95
34073;BME280;20346;52.702;16.886;2024-01-25T00:27:18;100308.58;;;6.14;88.33
34073;BME280;20346;52.702;16.886;2024-01-25T00:30:04;100307.21;;;6.14;88.00
34073;BME280;20346;52.702;16.886;2024-01-25T00:32:50;100315.77;;;6.15;87.82
34073;BME280;20346;52.702;16.886;2024-01-25T00:35:44;100318.85;;;6.18;87.21
34073;BME280;20346;52.702;16.886;2024-01-25T00:38:30;100321.90;;;6.22;87.27
34073;BME280;20346;52.702;16.886;2024-01-25T00:41:17;100325.82;;;6.24;87.03
34073;BME280;20346;52.702;16.886;2024-01-25T00:44:04;100340.87;;;6.27;87.26
34073;BME280;20346;52.702;16.886;2024-01-25T00:46:50;100339.33;;;6.27;87.61
34073;BME280;20346;52.702;16.886;2024-01-25T00:49:39;100350.27;;;6.29;87.58
34073;BME280;20346;52.702;16.886;2024-01-25T00:52:25;100343.27;;;6.27;87.20
34073;BME280;20346;52.702;16.886;2024-01-25T00:55:11;100344.32;;;6.23;87.48
34073;BME280;20346;52.702;16.886;2024-01-25T00:57:57;100339.71;;;6.17;87.92
34073;BME280;20346;52.702;16.886;2024-01-25T01:00:45;100345.05;;;6.08;88.25
34073;BME280;20346;52.702;16.886;2024-01-25T01:03:31;100346.25;;;6.03;88.52
34073;BME280;20346;52.702;16.886;2024-01-25T01:06:18;100343.53;;;5.95;88.76
34073;BME280;20346;52.702;16.886;2024-01-25T01:09:04;100331.71;;;5.88;89.26
34073;BME280;20346;52.702;16.886;2024-01-25T01:11:50;100346.77;;;5.80;89.30
34073;BME280;20346;52.702;16.886;2024-01-25T01:14:37;100344.71;;;5.78;89.53
34073;BME280;20346;52.702;16.886;2024-01-25T01:17:23;100339.23;;;5.76;89.35
34073;BME280;20346;52.702;16.886;2024-01-25T01:20:09;100344.55;;;5.78;89.40
34073;BME280;20346;52.702;16.886;2024-01-25T01:22:55;100336.67;;;5.79;89.41
34073;BME280;20346;52.702;16.886;2024-01-25T01:25:41;100339.41;;;5.79;89.40
34073;BME280;20346;52.702;16.886;2024-01-25T01:28:27;100343.86;;;5.80;89.53
34073;BME280;20346;52.702;16.886;2024-01-25T01:31:13;100341.30;;;5.78;89.53
34073;BME280;20346;52.702;16.886;2024-01-25T01:33:59;100343.17;;;5.79;89.49
34073;BME280;20346;52.702;16.886;2024-01-25T01:36:46;100351.03;;;5.81;89.61
34073;BME280;20346;52.702;16.886;2024-01-25T01:39:31;100344.88;;;5.76;92.25
34073;BME280;20346;52.702;16.886;2024-01-25T01:42:17;100352.95;;;5.69;92.86
34073;BME280;20346;52.702;16.886;2024-01-25T01:45:03;100360.31;;;5.63;91.13
34073;BME280;20346;52.702;16.886;2024-01-25T01:47:50;100369.02;;;5.58;91.08
34073;BME280;20346;52.702;16.886;2024-01-25T01:50:35;100364.92;;;5.52;91.39
34073;BME280;20346;52.702;16.886;2024-01-25T01:53:22;100377.23;;;5.45;91.45
34073;BME280;20346;52.702;16.886;2024-01-25T01:56:08;100381.66;;;5.40;91.87
34073;BME280;20346;52.702;16.886;2024-01-25T01:58:59;100387.13;;;5.37;92.07
34073;BME280;20346;52.702;16.886;2024-01-25T02:01:45;100375.84;;;5.33;91.66
34073;BME280;20346;52.702;16.886;2024-01-25T02:04:31;100381.48;;;5.31;92.08
34073;BME280;20346;52.702;16.886;2024-01-25T02:07:17;100377.02;;;5.28;92.08
34073;BME280;20346;52.702;16.886;2024-01-25T02:10:04;100370.36;;;5.26;92.04
34073;BME280;20346;52.702;16.886;2024-01-25T02:12:51;100368.48;;;5.25;92.34
34073;BME280;20346;52.702;16.886;2024-01-25T02:15:37;100365.57;;;5.23;92.42
34073;BME280;20346;52.702;16.886;2024-01-25T02:18:23;100367.79;;;5.23;92.35
34073;BME280;20346;52.702;16.886;2024-01-25T02:21:09;100372.23;;;5.24;92.29
34073;BME280;20346;52.702;16.886;2024-01-25T02:23:55;100374.28;;;5.21;92.08
34073;BME280;20346;52.702;16.886;2024-01-25T02:26:41;100366.94;;;5.22;92.22
34073;BME280;20346;52.702;16.886;2024-01-25T02:29:27;100365.74;;;5.23;92.37
34073;BME280;20346;52.702;16.886;2024-01-25T02:32:13;100368.64;;;5.23;92.24
34073;BME280;20346;52.702;16.886;2024-01-25T02:35:00;100371.04;;;5.24;92.34
34073;BME280;20346;52.702;16.886;2024-01-25T02:37:46;100357.20;;;5.23;92.68
34073;BME280;20346;52.702;16.886;2024-01-25T02:40:33;100348.98;;;5.22;92.70
34073;BME280;20346;52.702;16.886;2024-01-25T02:43:19;100352.41;;;5.23;92.87
34073;BME280;20346;52.702;16.886;2024-01-25T02:46:07;100345.77;;;5.20;92.80
34073;BME280;20346;52.702;16.886;2024-01-25T02:48:53;100349.70;;;5.18;93.08
34073;BME280;20346;52.702;16.886;2024-01-25T02:51:39;100342.00;;;5.15;93.23
34073;BME280;20346;52.702;16.886;2024-01-25T02:54:25;100343.55;;;5.16;93.18
34073;BME280;20346;52.702;16.886;2024-01-25T02:57:11;100338.42;;;5.15;93.18
34073;BME280;20346;52.702;16.886;2024-01-25T02:59:57;100332.95;;;5.18;93.13
34073;BME280;20346;52.702;16.886;2024-01-25T03:03:24;100341.30;;;5.23;92.99
34073;BME280;20346;52.702;16.886;2024-01-25T03:06:10;100345.41;;;5.25;92.95
34073;BME280;20346;52.702;16.886;2024-01-25T03:08:56;100353.95;;;5.27;92.85
34073;BME280;20346;52.702;16.886;2024-01-25T03:11:42;100352.77;;;5.35;92.29
34073;BME280;20346;52.702;16.886;2024-01-25T03:14:28;100353.13;;;5.42;92.11
34073;BME280;20346;52.702;16.886;2024-01-25T03:17:14;100350.90;;;5.50;91.37
34073;BME280;20346;52.702;16.886;2024-01-25T03:20:00;100350.22;;;5.54;91.51
34073;BME280;20346;52.702;16.886;2024-01-25T03:22:46;100349.88;;;5.53;91.50
34073;BME280;20346;52.702;16.886;2024-01-25T03:25:32;100357.05;;;5.47;91.77
34073;BME280;20346;52.702;16.886;2024-01-25T03:28:18;100361.66;;;5.43;92.07
34073;BME280;20346;52.702;16.886;2024-01-25T03:31:04;100373.11;;;5.39;92.44
34073;BME280;20346;52.702;16.886;2024-01-25T03:33:50;100370.20;;;5.35;92.65
34073;BME280;20346;52.702;16.886;2024-01-25T03:36:37;100368.15;;;5.40;92.21
34073;BME280;20346;52.702;16.886;2024-01-25T03:39:25;100369.54;;;5.45;92.16
34073;BME280;20346;52.702;16.886;2024-01-25T03:42:10;100372.95;;;5.49;91.99
34073;BME280;20346;52.702;16.886;2024-01-25T03:44:56;100371.93;;;5.50;91.99
34073;BME280;20346;52.702;16.886;2024-01-25T03:47:42;100369.36;;;5.53;91.81
34073;BME280;20346;52.702;16.886;2024-01-25T03:50:28;100373.81;;;5.54;91.89
34073;BME280;20346;52.702;16.886;2024-01-25T03:53:14;100370.91;;;5.55;91.63
34073;BME280;20346;52.702;16.886;2024-01-25T03:56:00;100373.30;;;5.56;91.47
34073;BME280;20346;52.702;16.886;2024-01-25T03:58:46;100372.95;;;5.57;91.65
34073;BME280;20346;52.702;16.886;2024-01-25T04:01:32;100369.88;;;5.56;91.66
34073;BME280;20346;52.702;16.886;2024-01-25T04:04:18;100360.83;;;5.58;91.44
34073;BME280;20346;52.702;16.886;2024-01-25T04:07:04;100368.17;;;5.59;91.48
34073;BME280;20346;52.702;16.886;2024-01-25T04:09:49;100373.98;;;5.58;91.65
34073;BME280;20346;52.702;16.886;2024-01-25T04:12:36;100373.48;;;5.58;91.35
34073;BME280;20346;52.702;16.886;2024-01-25T04:15:22;100370.40;;;5.56;91.47
34073;BME280;20346;52.702;16.886;2024-01-25T04:18:08;100374.16;;;5.54;91.62
34073;BME280;20346;52.702;16.886;2024-01-25T04:20:54;100372.44;;;5.54;91.81
34073;BME280;20346;52.702;16.886;2024-01-25T04:23:40;100375.52;;;5.53;91.94
34073;BME280;20346;52.702;16.886;2024-01-25T04:26:26;100383.90;;;5.50;92.04
34073;BME280;20346;52.702;16.886;2024-01-25T04:29:12;100373.80;;;5.49;92.08
34073;BME280;20346;52.702;16.886;2024-01-25T04:31:58;100376.02;;;5.45;92.40
34073;BME280;20346;52.702;16.886;2024-01-25T04:34:44;100379.10;;;5.44;92.45
34073;BME280;20346;52.702;16.886;2024-01-25T04:37:32;100382.85;;;5.40;92.56
34073;BME280;20346;52.702;16.886;2024-01-25T04:40:19;100388.49;;;5.39;92.63
34073;BME280;20346;52.702;16.886;2024-01-25T04:43:05;100380.63;;;5.37;92.99
34073;BME280;20346;52.702;16.886;2024-01-25T04:45:51;100373.29;;;5.32;93.23
34073;BME280;20346;52.702;16.886;2024-01-25T04:48:37;100369.52;;;5.30;93.29
34073;BME280;20346;52.702;16.886;2024-01-25T04:51:23;100370.70;;;5.27;93.23
34073;BME280;20346;52.702;16.886;2024-01-25T04:54:09;100371.21;;;5.28;93.19
34073;BME280;20346;52.702;16.886;2024-01-25T04:56:58;100377.54;;;5.26;93.26
34073;BME280;20346;52.702;16.886;2024-01-25T04:59:44;100374.45;;;5.25;93.33
34073;BME280;20346;52.702;16.886;2024-01-25T05:02:30;100369.50;;;5.27;93.20
34073;BME280;20346;52.702;16.886;2024-01-25T05:05:15;100374.46;;;5.26;93.15
34073;BME280;20346;52.702;16.886;2024-01-25T05:08:01;100368.48;;;5.27;93.08
34073;BME280;20346;52.702;16.886;2024-01-25T05:10:47;100378.91;;;5.28;92.99
34073;BME280;20346;52.702;16.886;2024-01-25T05:13:33;100385.06;;;5.29;93.11
34073;BME280;20346;52.702;16.886;2024-01-25T05:16:19;100399.41;;;5.29;93.08
34073;BME280;20346;52.702;16.886;2024-01-25T05:19:05;100403.02;;;5.29;93.07
34073;BME280;20346;52.702;16.886;2024-01-25T05:21:51;100403.52;;;5.27;93.11
34073;BME280;20346;52.702;16.886;2024-01-25T05:24:37;100406.25;;;5.26;93.16
34073;BME280;20346;52.702;16.886;2024-01-25T05:27:23;100401.11;;;5.25;93.15
34073;BME280;20346;52.702;16.886;2024-01-25T05:30:09;100405.73;;;5.24;93.39
34073;BME280;20346;52.702;16.886;2024-01-25T05:32:55;100406.25;;;5.24;93.40
34073;BME280;20346;52.702;16.886;2024-01-25T05:35:41;100412.56;;;5.22;93.46
34073;BME280;20346;52.702;16.886;2024-01-25T05:38:32;100421.11;;;5.23;93.36
34073;BME280;20346;52.702;16.886;2024-01-25T05:41:38;100431.02;;;5.23;93.42
34073;BME280;20346;52.702;16.886;2024-01-25T05:44:24;100434.60;;;5.22;93.49
34073;BME280;20346;52.702;16.886;2024-01-25T05:47:10;100436.98;;;5.22;93.67
34073;BME280;20346;52.702;16.886;2024-01-25T05:49:56;100438.71;;;5.21;93.95
34073;BME280;20346;52.702;16.886;2024-01-25T05:52:42;100449.14;;;5.20;94.02
34073;BME280;20346;52.702;16.886;2024-01-25T05:55:48;100463.84;;;5.17;94.10
34073;BME280;20346;52.702;16.886;2024-01-25T05:58:34;100470.84;;;5.15;94.37
34073;BME280;20346;52.702;16.886;2024-01-25T06:01:20;100471.69;;;5.14;94.33
34073;BME280;20346;52.702;16.886;2024-01-25T06:04:06;100470.83;;;5.12;94.35
34073;BME280;20346;52.702;16.886;2024-01-25T06:06:52;100476.64;;;5.14;94.86
34073;BME280;20346;52.702;16.886;2024-01-25T06:09:38;100474.92;;;5.12;95.01
34073;BME280;20346;52.702;16.886;2024-01-25T06:12:24;100485.00;;;5.10;95.39
34073;BME280;20346;52.702;16.886;2024-01-25T06:15:17;100484.50;;;5.11;95.45
34073;BME280;20346;52.702;16.886;2024-01-25T06:18:03;100490.30;;;5.12;95.18
34073;BME280;20346;52.702;16.886;2024-01-25T06:20:54;100485.19;;;5.14;95.38
34073;BME280;20346;52.702;16.886;2024-01-25T06:23:40;100493.04;;;5.13;95.43
34073;BME280;20346;52.702;16.886;2024-01-25T06:26:26;100503.46;;;5.13;95.39
34073;BME280;20346;52.702;16.886;2024-01-25T06:29:12;100502.62;;;5.14;95.50
34073;BME280;20346;52.702;16.886;2024-01-25T06:31:58;100505.69;;;5.15;95.49
34073;BME280;20346;52.702;16.886;2024-01-25T06:34:44;100508.44;;;5.18;95.46
34073;BME280;20346;52.702;16.886;2024-01-25T06:37:30;100511.85;;;5.19;95.45
34073;BME280;20346;52.702;16.886;2024-01-25T06:40:16;100513.40;;;5.19;95.38
34073;BME280;20346;52.702;16.886;2024-01-25T06:43:02;100518.52;;;5.20;95.28
34073;BME280;20346;52.702;16.886;2024-01-25T06:45:49;100515.95;;;5.22;95.04
34073;BME280;20346;52.702;16.886;2024-01-25T06:48:35;100525.69;;;5.24;94.96
34073;BME280;20346;52.702;16.886;2024-01-25T06:51:21;100519.89;;;5.25;95.01
34073;BME280;20346;52.702;16.886;2024-01-25T06:54:07;100522.12;;;5.28;95.09
34073;BME280;20346;52.702;16.886;2024-01-25T06:56:53;100522.81;;;5.29;95.07
34073;BME280;20346;52.702;16.886;2024-01-25T06:59:41;100526.41;;;5.31;95.34
34073;BME280;20346;52.702;16.886;2024-01-25T07:02:27;100529.16;;;5.35;95.16
34073;BME280;20346;52.702;16.886;2024-01-25T07:05:13;100539.59;;;5.37;95.18
34073;BME280;20346;52.702;16.886;2024-01-25T07:07:59;100544.73;;;5.39;94.92
34073;BME280;20346;52.702;16.886;2024-01-25T07:10:45;100547.81;;;5.39;94.92
34073;BME280;20346;52.702;16.886;2024-01-25T07:13:31;100558.58;;;5.39;95.01
34073;BME280;20346;52.702;16.886;2024-01-25T07:16:17;100556.02;;;5.40;94.89
34073;BME280;20346;52.702;16.886;2024-01-25T07:19:04;100563.38;;;5.42;94.94
34073;BME280;20346;52.702;16.886;2024-01-25T07:21:50;100567.48;;;5.44;94.79
34073;BME280;20346;52.702;16.886;2024-01-25T07:24:36;100571.94;;;5.45;94.70
34073;BME280;20346;52.702;16.886;2024-01-25T07:27:22;100579.98;;;5.45;94.71
34073;BME280;20346;52.702;16.886;2024-01-25T07:30:08;100581.86;;;5.47;94.70
34073;BME280;20346;52.702;16.886;2024-01-25T07:32:54;100587.85;;;5.48;94.66
34073;BME280;20346;52.702;16.886;2024-01-25T07:35:40;100597.95;;;5.49;94.58
34073;BME280;20346;52.702;16.886;2024-01-25T07:38:31;100609.75;;;5.52;94.65
34073;BME280;20346;52.702;16.886;2024-01-25T07:41:16;100611.29;;;5.52;94.58
34073;BME280;20346;52.702;16.886;2024-01-25T07:44:02;100614.55;;;5.54;94.65
34073;BME280;20346;52.702;16.886;2024-01-25T07:46:48;100622.42;;;5.56;94.36
34073;BME280;20346;52.702;16.886;2024-01-25T07:49:34;100626.20;;;5.59;94.46
34073;BME280;20346;52.702;16.886;2024-01-25T07:52:20;100631.85;;;5.61;94.24
34073;BME280;20346;52.702;16.886;2024-01-25T07:55:06;100636.64;;;5.62;94.25
34073;BME280;20346;52.702;16.886;2024-01-25T07:57:52;100633.73;;;5.62;94.16
34073;BME280;20346;52.702;16.886;2024-01-25T08:00:38;100632.54;;;5.63;94.31
34073;BME280;20346;52.702;16.886;2024-01-25T08:03:24;100638.88;;;5.63;94.25
34073;BME280;20346;52.702;16.886;2024-01-25T08:06:10;100643.48;;;5.63;94.15
34073;BME280;20346;52.702;16.886;2024-01-25T08:08:56;100648.94;;;5.59;94.30
34073;BME280;20346;52.702;16.886;2024-01-25T08:11:42;100652.86;;;5.58;94.40
34073;BME280;20346;52.702;16.886;2024-01-25T08:14:28;100649.61;;;5.58;94.55
34073;BME280;20346;52.702;16.886;2024-01-25T08:17:14;100647.23;;;5.61;94.52
34073;BME280;20346;52.702;16.886;2024-01-25T08:20:00;100654.58;;;5.58;94.55
34073;BME280;20346;52.702;16.886;2024-01-25T08:22:46;100650.81;;;5.58;94.63
34073;BME280;20346;52.702;16.886;2024-01-25T08:25:32;100659.70;;;5.57;94.51
34073;BME280;20346;52.702;16.886;2024-01-25T08:28:19;100672.70;;;5.56;94.66
34073;BME280;20346;52.702;16.886;2024-01-25T08:31:05;100674.24;;;5.57;94.55
34073;BME280;20346;52.702;16.886;2024-01-25T08:33:51;100677.31;;;5.57;94.50
34073;BME280;20346;52.702;16.886;2024-01-25T08:36:37;100677.48;;;5.56;94.48
34073;BME280;20346;52.702;16.886;2024-01-25T08:39:23;100676.27;;;5.56;94.55
34073;BME280;20346;52.702;16.886;2024-01-25T08:42:09;100674.93;;;5.59;94.56
34073;BME280;20346;52.702;16.886;2024-01-25T08:44:56;100683.15;;;5.59;94.30
34073;BME280;20346;52.702;16.886;2024-01-25T08:47:41;100683.66;;;5.60;94.05
34073;BME280;20346;52.702;16.886;2024-01-25T08:50:50;100690.17;;;5.62;93.86
34073;BME280;20346;52.702;16.886;2024-01-25T08:53:38;100686.60;;;5.67;93.93
34073;BME280;20346;52.702;16.886;2024-01-25T08:56:24;100691.40;;;5.69;93.81
34073;BME280;20346;52.702;16.886;2024-01-25T08:59:10;100701.67;;;5.71;93.89
34073;BME280;20346;52.702;16.886;2024-01-25T09:01:56;100696.35;;;5.73;93.72
34073;BME280;20346;52.702;16.886;2024-01-25T09:04:42;100698.76;;;5.76;93.83
34073;BME280;20346;52.702;16.886;2024-01-25T09:07:28;100701.87;;;5.81;93.83
34073;BME280;20346;52.702;16.886;2024-01-25T09:10:14;100707.02;;;5.87;93.56
34073;BME280;20346;52.702;16.886;2024-01-25T09:13:01;100714.95;;;5.91;93.38
34073;BME280;20346;52.702;16.886;2024-01-25T09:15:47;100725.90;;;5.91;93.29
34073;BME280;20346;52.702;16.886;2024-01-25T09:18:33;100726.06;;;5.91;92.82
34073;BME280;20346;52.702;16.886;2024-01-25T09:21:19;100739.25;;;5.92;92.90
34073;BME280;20346;52.702;16.886;2024-01-25T09:24:05;100745.23;;;5.93;93.02
34073;BME280;20346;52.702;16.886;2024-01-25T09:26:52;100747.98;;;5.94;92.54
34073;BME280;20346;52.702;16.886;2024-01-25T09:29:39;100750.89;;;5.92;92.27
34073;BME280;20346;52.702;16.886;2024-01-25T09:32:25;100759.09;;;5.91;91.87
34073;BME280;20346;52.702;16.886;2024-01-25T09:35:11;100760.98;;;5.92;91.78
34073;BME280;20346;52.702;16.886;2024-01-25T09:37:58;100769.02;;;5.94;91.77
34073;BME280;20346;52.702;16.886;2024-01-25T09:40:44;100766.81;;;5.94;91.86
34073;BME280;20346;52.702;16.886;2024-01-25T09:43:30;100773.33;;;5.97;91.96
34073;BME280;20346;52.702;16.886;2024-01-25T09:46:16;100781.73;;;6.03;91.65
34073;BME280;20346;52.702;16.886;2024-01-25T09:49:03;100786.37;;;6.05;91.70
34073;BME280;20346;52.702;16.886;2024-01-25T09:51:50;100786.20;;;6.05;91.63
34073;BME280;20346;52.702;16.886;2024-01-25T09:54:36;100791.30;;;6.00;91.33
34073;BME280;20346;52.702;16.886;2024-01-25T09:57:23;100789.59;;;5.98;91.27
34073;BME280;20346;52.702;16.886;2024-01-25T10:00:09;100790.10;;;6.00;91.46
34073;BME280;20346;52.702;16.886;2024-01-25T10:02:57;100792.19;;;6.06;91.56
34073;BME280;20346;52.702;16.886;2024-01-25T10:05:43;100799.91;;;6.10;91.32
34073;BME280;20346;52.702;16.886;2024-01-25T10:08:29;100802.34;;;6.14;91.59
34073;BME280;20346;52.702;16.886;2024-01-25T10:11:16;100800.64;;;6.16;90.99
34073;BME280;20346;52.702;16.886;2024-01-25T10:14:01;100800.14;;;6.19;90.93
34073;BME280;20346;52.702;16.886;2024-01-25T10:16:48;100806.81;;;6.20;90.95
34073;BME280;20346;52.702;16.886;2024-01-25T10:19:35;100805.96;;;6.22;90.64
34073;BME280;20346;52.702;16.886;2024-01-25T10:22:21;100810.08;;;6.21;90.56
34073;BME280;20346;52.702;16.886;2024-01-25T10:25:14;100806.14;;;6.20;90.72
34073;BME280;20346;52.702;16.886;2024-01-25T10:28:00;100808.36;;;6.19;90.41
34073;BME280;20346;52.702;16.886;2024-01-25T10:30:46;100809.05;;;6.21;90.57
34073;BME280;20346;52.702;16.886;2024-01-25T10:33:33;100816.23;;;6.20;89.56
34073;BME280;20346;52.702;16.886;2024-01-25T10:36:22;100820.86;;;6.22;89.95
34073;BME280;20346;52.702;16.886;2024-01-25T10:39:08;100820.35;;;6.22;89.96
34073;BME280;20346;52.702;16.886;2024-01-25T10:41:54;100814.52;;;6.24;89.50
34073;BME280;20346;52.702;16.886;2024-01-25T10:44:41;100820.34;;;6.25;89.88
34073;BME280;20346;52.702;16.886;2024-01-25T10:47:28;100825.66;;;6.28;88.90
34073;BME280;20346;52.702;16.886;2024-01-25T10:50:16;100830.45;;;6.27;89.51
34073;BME280;20346;52.702;16.886;2024-01-25T10:53:02;100835.41;;;6.28;88.60
34073;BME280;20346;52.702;16.886;2024-01-25T10:55:48;100839.84;;;6.25;89.04
34073;BME280;20346;52.702;16.886;2024-01-25T10:58:34;100848.42;;;6.23;88.84
34073;BME280;20346;52.702;16.886;2024-01-25T11:01:23;100853.04;;;6.21;89.14
34073;BME280;20346;52.702;16.886;2024-01-25T11:04:13;100850.14;;;6.22;89.22
34073;BME280;20346;52.702;16.886;2024-01-25T11:07:07;100849.79;;;6.23;89.38
34073;BME280;20346;52.702;16.886;2024-01-25T11:09:57;100858.52;;;6.22;89.05
34073;BME280;20346;52.702;16.886;2024-01-25T11:13:01;100855.77;;;6.22;89.04
34073;BME280;20346;52.702;16.886;2024-01-25T11:15:49;100858.35;;;6.22;88.71
34073;BME280;20346;52.702;16.886;2024-01-25T11:18:35;100858.52;;;6.24;89.06
34073;BME280;20346;52.702;16.886;2024-01-25T11:21:22;100861.95;;;6.28;89.10
34073;BME280;20346;52.702;16.886;2024-01-25T11:24:11;100874.78;;;6.27;89.02
34073;BME280;20346;52.702;16.886;2024-01-25T11:26:58;100872.73;;;6.27;89.33
34073;BME280;20346;52.702;16.886;2024-01-25T11:29:54;100873.08;;;6.29;89.46
34073;BME280;20346;52.702;16.886;2024-01-25T11:32:40;100868.48;;;6.32;89.54
34073;BME280;20346;52.702;16.886;2024-01-25T11:35:26;100870.53;;;6.34;88.95
34073;BME280;20346;52.702;16.886;2024-01-25T11:38:12;100877.23;;;6.36;88.74
34073;BME280;20346;52.702;16.886;2024-01-25T11:40:59;100874.15;;;6.37;88.58
34073;BME280;20346;52.702;16.886;2024-01-25T11:43:45;100871.42;;;6.41;88.66
34073;BME280;20346;52.702;16.886;2024-01-25T11:46:32;100874.38;;;6.48;88.67
34073;BME280;20346;52.702;16.886;2024-01-25T11:49:18;100887.77;;;6.56;88.68
34073;BME280;20346;52.702;16.886;2024-01-25T11:52:04;100892.26;;;6.60;88.01
34073;BME280;20346;52.702;16.886;2024-01-25T11:54:51;100898.44;;;6.63;87.71
34073;BME280;20346;52.702;16.886;2024-01-25T11:57:38;100896.88;;;6.60;87.07
34073;BME280;20346;52.702;16.886;2024-01-25T12:00:26;100905.44;;;6.61;87.87
34073;BME280;20346;52.702;16.886;2024-01-25T12:03:13;100904.95;;;6.64;88.00
34073;BME280;20346;52.702;16.886;2024-01-25T12:06:01;100912.48;;;6.63;87.70
34073;BME280;20346;52.702;16.886;2024-01-25T12:08:47;100915.23;;;6.65;88.03
34073;BME280;20346;52.702;16.886;2024-01-25T12:11:34;100916.60;;;6.66;87.69
34073;BME280;20346;52.702;16.886;2024-01-25T12:14:20;100920.02;;;6.63;87.12
34073;BME280;20346;52.702;16.886;2024-01-25T12:17:06;100923.77;;;6.60;87.23
34073;BME280;20346;52.702;16.886;2024-01-25T12:19:57;100924.81;;;6.63;87.93
34073;BME280;20346;52.702;16.886;2024-01-25T12:22:43;100929.98;;;6.68;87.74
34073;BME280;20346;52.702;16.886;2024-01-25T12:25:29;100926.89;;;6.66;86.73
34073;BME280;20346;52.702;16.886;2024-01-25T12:28:16;100929.27;;;6.64;87.06
34073;BME280;20346;52.702;16.886;2024-01-25T12:31:03;100935.45;;;6.65;87.02
34073;BME280;20346;52.702;16.886;2024-01-25T12:33:50;100942.66;;;6.68;86.84
34073;BME280;20346;52.702;16.886;2024-01-25T12:36:36;100949.66;;;6.65;86.14
34073;BME280;20346;52.702;16.886;2024-01-25T12:39:24;100961.14;;;6.65;86.51
34073;BME280;20346;52.702;16.886;2024-01-25T12:42:10;100960.45;;;6.65;86.66
34073;BME280;20346;52.702;16.886;2024-01-25T12:44:56;100958.23;;;6.66;86.56
34073;BME280;20346;52.702;16.886;2024-01-25T12:47:41;100961.46;;;6.61;86.22
34073;BME280;20346;52.702;16.886;2024-01-25T12:50:27;100969.98;;;6.56;86.54
34073;BME280;20346;52.702;16.886;2024-01-25T12:53:13;100975.64;;;6.55;86.35
34073;BME280;20346;52.702;16.886;2024-01-25T12:56:03;100987.95;;;6.52;86.66
34073;BME280;20346;52.702;16.886;2024-01-25T12:58:49;100989.66;;;6.51;86.57
34073;BME280;20346;52.702;16.886;2024-01-25T13:01:34;100991.32;;;6.44;86.32
34073;BME280;20346;52.702;16.886;2024-01-25T13:04:20;101002.95;;;6.43;86.73
34073;BME280;20346;52.702;16.886;2024-01-25T13:07:08;101001.23;;;6.41;86.76
34073;BME280;20346;52.702;16.886;2024-01-25T13:09:54;101005.67;;;6.39;86.86
34073;BME280;20346;52.702;16.886;2024-01-25T13:12:40;101003.41;;;6.35;87.36
34073;BME280;20346;52.702;16.886;2024-01-25T13:15:26;101009.53;;;6.30;86.83
34073;BME280;20346;52.702;16.886;2024-01-25T13:18:12;101017.55;;;6.27;86.96
34073;BME280;20346;52.702;16.886;2024-01-25T13:20:58;101012.05;;;6.21;86.38
34073;BME280;20346;52.702;16.886;2024-01-25T13:23:44;101005.52;;;6.16;86.69
34073;BME280;20346;52.702;16.886;2024-01-25T13:26:30;101017.80;;;6.12;86.93
34073;BME280;20346;52.702;16.886;2024-01-25T13:29:16;101018.12;;;6.09;87.10
34073;BME280;20346;52.702;16.886;2024-01-25T13:32:02;101019.13;;;6.06;87.37
34073;BME280;20346;52.702;16.886;2024-01-25T13:34:48;101025.41;;;6.01;87.77
34073;BME280;20346;52.702;16.886;2024-01-25T13:37:34;101027.02;;;5.91;88.19
34073;BME280;20346;52.702;16.886;2024-01-25T13:40:20;101031.55;;;5.84;88.55
34073;BME280;20346;52.702;16.886;2024-01-25T13:43:06;101037.27;;;5.77;88.56
34073;BME280;20346;52.702;16.886;2024-01-25T13:45:52;101036.05;;;5.72;88.98
34073;BME280;20346;52.702;16.886;2024-01-25T13:48:38;101035.48;;;5.67;89.10
34073;BME280;20346;52.702;16.886;2024-01-25T13:51:23;101040.73;;;5.61;89.44
34073;BME280;20346;52.702;16.886;2024-01-25T13:54:09;101049.91;;;5.56;89.47
34073;BME280;20346;52.702;16.886;2024-01-25T13:56:55;101053.66;;;5.55;89.85
34073;BME280;20346;52.702;16.886;2024-01-25T13:59:41;101053.98;;;5.52;90.09
34073;BME280;20346;52.702;16.886;2024-01-25T14:02:27;101061.80;;;5.50;90.29
34073;BME280;20346;52.702;16.886;2024-01-25T14:05:13;101070.30;;;5.45;90.70
34073;BME280;20346;52.702;16.886;2024-01-25T14:08:00;101070.77;;;5.42;91.05
34073;BME280;20346;52.702;16.886;2024-01-25T14:10:45;101078.95;;;5.40;91.31
34073;BME280;20346;52.702;16.886;2024-01-25T14:13:32;101084.90;;;5.38;91.32
34073;BME280;20346;52.702;16.886;2024-01-25T14:16:18;101092.27;;;5.38;91.14
34073;BME280;20346;52.702;16.886;2024-01-25T14:19:04;101095.70;;;5.40;91.38
34073;BME280;20346;52.702;16.886;2024-01-25T14:21:50;101099.80;;;5.39;91.65
34073;BME280;20346;52.702;16.886;2024-01-25T14:24:36;101104.71;;;5.37;91.69
34073;BME280;20346;52.702;16.886;2024-01-25T14:27:22;101110.00;;;5.36;91.46
34073;BME280;20346;52.702;16.886;2024-01-25T14:30:08;101114.97;;;5.36;91.52
34073;BME280;20346;52.702;16.886;2024-01-25T14:32:55;101122.48;;;5.34;92.12